Time;durP1;ratioP1;P1;durP2;ratioP2;P2;SDS_P1;SDS_P2;PMS_P1;PMS_P2;Temp;Humidity;BMP_temperature;BMP_pressure;BME280_temperature;BME280_humidity;BME280_pressure;Samples;Min_cycle;Max_cycle;Signal;HPM_P1;HPM_P2
2023/07/27 00:09:04;;;;;;;7.10;4.60;;;;;;;15.73;95.23;99772.77;681688;1259;140115;-78
2023/07/27 00:24:07;;;;;;;13.50;7.20;;;;;;;15.75;94.41;99775.65;682085;1260;139962;-78
2023/07/27 00:39:13;;;;;;;10.30;4.40;;;;;;;15.30;95.49;99781.29;680250;1262;140691;-78
2023/07/27 00:54:17;;;;;;;11.80;5.70;;;;;;;15.22;95.40;99790.44;679780;1262;139806;-78
2023/07/27 01:09:20;;;;;;;10.70;6.00;;;;;;;15.04;95.35;99792.89;681230;1259;139510;-79
2023/07/27 01:24:35;;;;;;;11.60;5.60;;;;;;;14.73;96.52;99793.17;680762;1262;140053;-79
2023/07/27 01:39:43;;;;;;;8.00;5.10;;;;;;;14.36;98.32;99795.27;682436;1260;140269;-78
2023/07/27 01:54:48;;;;;;;9.50;5.50;;;;;;;14.29;97.92;99794.24;681811;1263;138847;-78
2023/07/27 02:09:51;;;;;;;10.70;4.90;;;;;;;14.14;96.73;99793.59;681024;1260;140148;-78
2023/07/27 02:24:54;;;;;;;8.10;5.80;;;;;;;14.43;96.26;99800.65;680901;1263;140591;-78
2023/07/27 02:39:58;;;;;;;9.10;4.70;;;;;;;14.63;95.73;99813.13;680089;1262;139451;-77
2023/07/27 02:55:01;;;;;;;9.40;5.10;;;;;;;14.63;96.02;99817.75;681163;1262;139558;-78
2023/07/27 03:10:05;;;;;;;10.30;5.90;;;;;;;14.52;95.58;99823.88;682346;1263;139713;-78
2023/07/27 03:25:09;;;;;;;8.80;5.40;;;;;;;14.50;96.80;99828.55;680725;1262;139514;-79
2023/07/27 03:40:12;;;;;;;11.10;5.90;;;;;;;14.64;96.95;99832.43;682127;1263;139432;-78
2023/07/27 03:55:18;;;;;;;12.90;7.00;;;;;;;14.64;97.70;99847.52;679207;1263;140160;-78
2023/07/27 04:10:22;;;;;;;9.20;4.90;;;;;;;14.55;99.24;99858.01;681540;1263;139619;-78
2023/07/27 04:25:25;;;;;;;8.10;5.50;;;;;;;14.96;99.90;99867.03;678858;1262;139479;-78
2023/07/27 04:40:28;;;;;;;10.90;5.00;;;;;;;15.45;99.18;99847.00;681567;1263;139497;-78
2023/07/27 04:55:31;;;;;;;7.90;4.70;;;;;;;15.73;99.83;99836.72;681607;1263;140208;-79
2023/07/27 05:10:34;;;;;;;11.00;5.00;;;;;;;15.79;99.47;99844.70;682339;1263;139606;-79
2023/07/27 05:25:38;;;;;;;6.80;3.60;;;;;;;15.83;99.57;99841.36;680674;1263;139722;-79
2023/07/27 05:40:41;;;;;;;7.30;3.90;;;;;;;16.52;98.65;99849.67;680967;1262;139651;-79
2023/07/27 05:55:44;;;;;;;8.90;4.00;;;;;;;18.23;93.98;99860.03;680200;1263;139402;-78
2023/07/27 06:10:48;;;;;;;7.10;3.70;;;;;;;21.12;82.46;99858.16;679768;1272;139113;-79
2023/07/27 06:25:51;;;;;;;6.90;3.50;;;;;;;23.06;74.84;99864.50;679009;1266;140353;-79
2023/07/27 06:40:54;;;;;;;3.80;2.70;;;;;;;24.26;68.24;99863.38;680627;1259;139598;-79
2023/07/27 06:58:46;;;;;;;7.70;2.50;;;;;;;24.44;67.25;99851.41;659171;1298;544908;-79
2023/07/27 07:13:50;;;;;;;5.10;2.30;;;;;;;25.49;64.89;99845.77;679109;1268;139757;-81
2023/07/27 07:28:53;;;;;;;2.50;1.90;;;;;;;25.63;61.32;99843.70;679135;1268;139365;-79
2023/07/27 07:43:56;;;;;;;3.10;1.50;;;;;;;25.57;59.52;99842.50;679634;1269;138139;-80
2023/07/27 07:58:59;;;;;;;3.90;1.50;;;;;;;25.73;57.81;99843.35;678970;1268;138405;-78
2023/07/27 08:14:03;;;;;;;9.60;3.80;;;;;;;25.82;56.16;99823.69;677515;1269;138408;-77
2023/07/27 08:29:06;;;;;;;4.20;1.30;;;;;;;25.76;53.68;99824.25;677160;1264;138477;-78
2023/07/27 08:44:13;;;;;;;2.70;1.90;;;;;;;25.86;51.55;99811.05;679276;1269;139141;-87
2023/07/27 08:59:16;;;;;;;2.50;1.50;;;;;;;27.07;49.85;99801.25;676265;1264;138114;-82
2023/07/27 09:14:21;;;;;;;4.40;1.30;;;;;;;26.83;49.66;99790.10;677983;1269;138121;-78
2023/07/27 09:29:26;;;;;;;2.30;1.70;;;;;;;27.49;49.69;99786.31;679864;1264;139093;-81
2023/07/27 09:44:29;;;;;;;4.60;1.80;;;;;;;26.73;50.32;99782.20;679902;1264;138596;-77
2023/07/27 09:59:33;;;;;;;5.30;1.20;;;;;;;27.11;49.19;99777.52;680241;1264;139043;-78
2023/07/27 10:14:38;;;;;;;5.20;1.10;;;;;;;27.65;46.38;99763.21;676427;1264;138106;-77
2023/07/27 10:29:46;;;;;;;3.10;1.70;;;;;;;26.38;48.90;99753.27;679197;1264;138671;-78
2023/07/27 10:44:51;;;;;;;2.80;1.60;;;;;;;26.26;48.33;99742.66;678904;1269;139349;-78
2023/07/27 10:59:54;;;;;;;2.90;1.30;;;;;;;26.56;48.59;99743.63;676946;1264;139361;-76
2023/07/27 11:15:26;;;;;;;2.20;1.50;;;;;;;26.36;48.46;99732.73;680144;1264;139187;-77
2023/07/27 11:30:30;;;;;;;3.70;2.00;;;;;;;25.82;48.09;99722.10;679837;1269;141274;-77
2023/07/27 11:45:34;;;;;;;3.70;1.50;;;;;;;25.66;49.10;99715.38;681433;1264;139258;-77
2023/07/27 12:00:38;;;;;;;2.70;1.50;;;;;;;25.80;48.58;99702.81;681245;1263;139396;-78
2023/07/27 12:15:43;;;;;;;4.20;1.90;;;;;;;25.21;48.52;99688.52;681087;1260;139621;-76
2023/07/27 12:31:06;;;;;;;1.40;0.90;;;;;;;25.46;47.89;99682.82;680951;1261;139247;-78
2023/07/27 12:46:13;;;;;;;2.00;1.30;;;;;;;25.86;47.99;99672.14;681254;1261;139014;-78
2023/07/27 13:01:16;;;;;;;25.50;17.10;;;;;;;25.98;48.30;99671.63;681826;1259;139280;-78
2023/07/27 13:16:19;;;;;;;3.70;2.20;;;;;;;26.72;48.05;99672.44;681564;1261;139207;-78
2023/07/27 13:31:23;;;;;;;2.50;1.30;;;;;;;26.35;47.27;99660.23;680692;1259;139017;-77
2023/07/27 13:46:26;;;;;;;2.00;1.40;;;;;;;26.72;46.78;99649.63;681862;1259;138112;-76
2023/07/27 14:01:30;;;;;;;4.60;1.20;;;;;;;26.51;46.65;99639.14;681924;1262;139182;-76
2023/07/27 14:16:33;;;;;;;3.30;1.20;;;;;;;25.88;46.72;99635.58;681848;1259;139015;-76
2023/07/27 14:31:37;;;;;;;3.70;2.30;;;;;;;25.65;47.15;99632.54;680871;1262;138560;-78
2023/07/27 14:46:40;;;;;;;2.20;1.00;;;;;;;25.94;47.48;99628.44;681405;1259;138123;-79
2023/07/27 15:01:43;;;;;;;4.00;1.20;;;;;;;25.72;46.97;99614.28;680537;1275;138785;-78
2023/07/27 15:16:50;;;;;;;3.10;1.40;;;;;;;25.56;47.61;99602.77;679554;1258;138957;-77
2023/07/27 15:31:53;;;;;;;2.40;1.20;;;;;;;27.35;46.87;99592.11;679761;1263;139577;-76
2023/07/27 15:46:57;;;;;;;1.70;1.60;;;;;;;27.29;44.58;99592.42;680609;1259;138289;-77
2023/07/27 16:02:00;;;;;;;2.90;1.00;;;;;;;26.76;45.17;99588.44;680744;1264;138677;-76
2023/07/27 16:17:04;;;;;;;4.30;1.10;;;;;;;26.64;45.25;99579.92;681777;1264;139095;-77
2023/07/27 16:32:09;;;;;;;1.90;1.00;;;;;;;26.80;44.82;99573.10;680843;1263;138510;-78
2023/07/27 16:47:12;;;;;;;5.50;4.00;;;;;;;26.80;44.20;99572.28;681843;1264;138474;-78
2023/07/27 17:02:16;;;;;;;13.60;7.00;;;;;;;26.70;44.37;99577.27;681553;1264;138503;-76
2023/07/27 17:17:20;;;;;;;8.40;4.80;;;;;;;26.03;45.49;99573.15;680646;1262;138307;-77
2023/07/27 17:32:23;;;;;;;9.70;3.00;;;;;;;25.36;46.43;99565.91;680624;1264;138092;-78
2023/07/27 17:47:27;;;;;;;4.60;3.30;;;;;;;24.79;46.70;99572.29;680870;1266;138328;-77
2023/07/27 18:02:31;;;;;;;11.90;7.90;;;;;;;24.01;48.51;99570.52;681374;1261;138035;-76
2023/07/27 18:17:36;;;;;;;63.00;8.50;;;;;;;23.63;49.49;99565.38;681037;1265;138942;-77
2023/07/27 18:32:40;;;;;;;24.60;14.80;;;;;;;22.65;51.29;99562.23;681095;1265;139396;-76
2023/07/27 18:47:43;;;;;;;8.70;3.40;;;;;;;22.22;51.68;99566.30;680650;1266;138691;-77
2023/07/27 19:02:47;;;;;;;13.20;4.10;;;;;;;21.74;52.33;99577.43;680404;1260;152615;-77
2023/07/27 19:17:51;;;;;;;18.00;10.60;;;;;;;21.22;52.74;99576.63;680714;1265;138189;-76
2023/07/27 19:32:54;;;;;;;6.70;4.20;;;;;;;20.32;53.87;99561.98;680805;1264;138785;-76
2023/07/27 19:47:58;;;;;;;10.00;3.90;;;;;;;19.78;55.27;99559.44;680897;1264;138427;-78
2023/07/27 20:03:02;;;;;;;5.30;2.40;;;;;;;19.33;56.96;99548.25;679670;1264;138120;-78
2023/07/27 20:18:05;;;;;;;8.40;2.90;;;;;;;18.83;57.10;99543.84;678845;1275;139798;-77
2023/07/27 20:33:09;;;;;;;17.70;6.00;;;;;;;18.17;59.04;99538.96;678245;1264;139182;-78
2023/07/27 20:48:13;;;;;;;11.10;4.60;;;;;;;17.68;60.39;99539.17;679393;1264;139423;-77
2023/07/27 21:03:16;;;;;;;43.70;17.90;;;;;;;17.52;62.47;99534.39;680652;1266;139235;-78
2023/07/27 21:18:20;;;;;;;54.30;26.50;;;;;;;17.88;64.53;99530.66;678377;1264;138261;-78
2023/07/27 21:33:23;;;;;;;54.10;31.80;;;;;;;18.09;65.05;99526.98;681075;1265;138909;-77
2023/07/27 21:48:31;;;;;;;56.40;27.60;;;;;;;18.27;65.52;99522.22;679140;1266;139420;-78
2023/07/27 22:03:37;;;;;;;46.90;20.60;;;;;;;18.08;66.80;99514.36;680615;1264;140069;-79
2023/07/27 22:18:41;;;;;;;30.40;14.40;;;;;;;17.86;68.19;99500.13;680605;1263;139538;-79
2023/07/27 22:33:44;;;;;;;29.10;12.90;;;;;;;17.99;68.95;99485.81;678550;1261;140282;-79
2023/07/27 22:48:50;;;;;;;24.10;10.80;;;;;;;18.33;68.35;99474.19;680150;1274;140309;-79
2023/07/27 23:03:53;;;;;;;16.10;7.80;;;;;;;18.09;68.86;99459.84;679111;1266;139765;-78
2023/07/27 23:18:56;;;;;;;18.10;8.60;;;;;;;18.02;69.27;99456.68;679073;1268;139460;-79
2023/07/27 23:34:02;;;;;;;17.60;8.00;;;;;;;17.90;68.20;99438.59;678823;1274;139361;-78
2023/07/27 23:49:05;;;;;;;9.90;5.40;;;;;;;18.04;69.05;99424.89;680703;1266;139434;-78
